Time;durP1;ratioP1;P1;durP2;ratioP2;P2;SDS_P1;SDS_P2;PMS_P1;PMS_P2;Temp;Humidity;BMP_temperature;BMP_pressure;BME280_temperature;BME280_humidity;BME280_pressure;Samples;Min_cycle;Max_cycle;Signal;HPM_P1;HPM_P2
2022/01/23 00:02:17;;;;;;;53.10;28.33;;;;;;;3.81;100.00;103579.25;5030548;28;20029;-83
2022/01/23 00:04:43;;;;;;;50.97;28.13;;;;;;;3.82;100.00;103571.56;5042834;28;20040;-83
2022/01/23 00:07:11;;;;;;;45.38;26.48;;;;;;;3.80;100.00;103567.19;5051622;28;20401;-83
2022/01/23 00:09:37;;;;;;;47.88;27.98;;;;;;;3.80;100.00;103562.91;5034630;28;20418;-83
2022/01/23 00:12:08;;;;;;;52.45;27.95;;;;;;;3.80;100.00;103551.69;5040485;28;20024;-83
2022/01/23 00:17:23;;;;;;;50.13;27.58;;;;;;;3.76;100.00;103542.94;5054625;28;20124;-83
2022/01/23 00:19:52;;;;;;;48.53;27.77;;;;;;;3.76;100.00;103545.50;5055096;28;20021;-83
2022/01/23 00:22:19;;;;;;;47.17;27.00;;;;;;;3.77;100.00;103543.81;5054150;28;20079;-83
2022/01/23 00:30:25;;;;;;;51.60;27.98;;;;;;;3.73;100.00;103537.63;5033882;28;20091;-83
2022/01/23 00:32:52;;;;;;;47.55;27.63;;;;;;;3.71;100.00;103541.81;5035109;28;20076;-83
2022/01/23 00:35:18;;;;;;;48.42;27.60;;;;;;;3.72;100.00;103541.88;5035848;28;20045;-83
2022/01/23 00:37:43;;;;;;;50.78;27.70;;;;;;;3.72;100.00;103531.53;5051854;28;20453;-83
2022/01/23 00:40:10;;;;;;;50.17;28.83;;;;;;;3.70;100.00;103529.72;5054616;28;20025;-83
2022/01/23 00:42:35;;;;;;;49.08;26.83;;;;;;;3.71;100.00;103542.69;5044146;28;20424;-83
2022/01/23 00:45:46;;;;;;;48.35;27.08;;;;;;;3.72;100.00;103547.03;5035615;28;20022;-83
2022/01/23 00:47:54;;;;;;;52.50;28.77;;;;;;;3.71;100.00;103532.38;5054255;28;20053;-83
2022/01/23 00:50:20;;;;;;;51.83;27.85;;;;;;;3.72;100.00;103526.38;5053559;28;20024;-83
2022/01/23 00:52:45;;;;;;;42.13;26.00;;;;;;;3.70;100.00;103525.44;5054518;28;20400;-83
2022/01/23 00:55:10;;;;;;;48.15;25.92;;;;;;;3.72;100.00;103523.81;5053679;28;20033;-83
2022/01/23 00:57:36;;;;;;;50.20;27.50;;;;;;;3.71;100.00;103527.22;5053028;28;20507;-83
2022/01/23 01:00:04;;;;;;;51.72;28.17;;;;;;;3.70;100.00;103519.41;5054099;28;20050;-82
2022/01/23 01:02:29;;;;;;;48.22;27.92;;;;;;;3.70;100.00;103525.44;5046979;28;20362;-83
2022/01/23 01:04:54;;;;;;;48.58;25.70;;;;;;;3.71;100.00;103526.31;5033200;28;20056;-83
2022/01/23 01:07:20;;;;;;;42.92;25.40;;;;;;;3.71;100.00;103524.63;5034280;28;20037;-83
2022/01/23 01:09:49;;;;;;;50.40;27.52;;;;;;;3.69;100.00;103517.63;5034185;28;20532;-83
2022/01/23 01:12:20;;;;;;;47.72;28.10;;;;;;;3.71;100.00;103532.38;5037559;28;20073;-83
2022/01/23 01:17:27;;;;;;;48.03;26.38;;;;;;;3.71;100.00;103531.50;5046112;28;20480;-83
2022/01/23 01:31:07;;;;;;;;;;;;;;;3.74;100.00;103529.06;5054471;28;20487;-82
2022/01/23 01:36:13;;;;;;;48.65;26.25;;;;;;;3.70;100.00;103537.47;5033430;28;20421;-83
2022/01/23 01:38:38;;;;;;;50.60;26.63;;;;;;;3.70;100.00;103534.88;5033504;28;20056;-83
2022/01/23 01:41:03;;;;;;;48.72;27.27;;;;;;;3.68;100.00;103529.63;5032617;28;20067;-83
2022/01/23 01:43:28;;;;;;;51.10;27.23;;;;;;;3.69;100.00;103543.41;5047832;28;20083;-83
2022/01/23 01:45:54;;;;;;;49.30;27.10;;;;;;;3.68;100.00;103537.38;5052642;28;20495;-83
2022/01/23 01:48:23;;;;;;;47.88;26.75;;;;;;;3.69;100.00;103543.41;5053264;28;20029;-83
2022/01/23 01:50:49;;;;;;;52.28;27.48;;;;;;;3.69;100.00;103543.41;5053671;28;20388;-83
2022/01/23 01:53:14;;;;;;;52.28;27.08;;;;;;;3.68;100.00;103544.25;5052054;28;20024;-83
2022/01/23 01:55:47;;;;;;;46.92;27.08;;;;;;;3.68;100.00;103545.13;5053282;28;20029;-83
2022/01/23 02:01:00;;;;;;;47.00;26.67;;;;;;;3.69;100.00;103536.56;5041840;28;20037;-83
2022/01/23 02:08:43;;;;;;;47.25;26.73;;;;;;;3.69;100.00;103549.47;5045813;28;20045;-83
2022/01/23 02:11:21;;;;;;;44.15;25.98;;;;;;;3.66;100.00;103549.34;5043471;28;20025;-83
2022/01/23 02:13:56;;;;;;;47.35;25.88;;;;;;;3.68;100.00;103549.41;5042392;28;20025;-83
2022/01/23 02:22:32;;;;;;;44.97;26.55;;;;;;;3.68;100.00;103541.66;5034772;28;20473;-83
2022/01/23 02:56:52;;;;;;;45.15;25.52;;;;;;;3.61;100.00;103500.91;5049300;28;20033;-83
2022/01/23 02:59:24;;;;;;;43.72;24.58;;;;;;;3.59;100.00;103495.66;5051783;28;20024;-83
2022/01/23 03:04:26;;;;;;;41.47;23.88;;;;;;;3.59;100.00;103497.34;5031472;28;20397;-83
2022/01/23 03:30:36;;;;;;;48.25;25.25;;;;;;;3.59;100.00;103505.97;5051429;28;20041;-83
2022/01/23 03:33:01;;;;;;;47.17;25.80;;;;;;;3.63;100.00;103514.75;5041878;28;20044;-83
2022/01/23 03:35:27;;;;;;;48.55;25.58;;;;;;;3.65;100.00;103521.75;5031674;28;20107;-83
2022/01/23 03:37:52;;;;;;;46.30;25.15;;;;;;;3.64;100.00;103508.78;5031536;28;20047;-83
2022/01/23 03:40:18;;;;;;;46.40;25.25;;;;;;;3.65;100.00;103526.91;5030885;28;20033;-83
2022/01/23 03:42:45;;;;;;;47.20;25.45;;;;;;;3.66;100.00;103525.22;5051809;28;20016;-83
2022/01/23 03:45:40;;;;;;;48.03;24.98;;;;;;;3.66;100.00;103517.47;5057803;28;20069;-83
2022/01/23 03:50:37;;;;;;;49.95;27.10;;;;;;;3.64;100.00;103521.69;5058060;28;20044;-83
2022/01/23 03:53:02;;;;;;;47.80;26.60;;;;;;;3.64;100.00;103516.53;5040312;28;20022;-83
2022/01/23 03:55:27;;;;;;;43.55;24.55;;;;;;;3.62;100.00;103516.44;5037820;28;20428;-82
2022/01/23 03:57:53;;;;;;;46.80;25.60;;;;;;;3.64;100.00;103512.25;5045308;28;20036;-83
2022/01/23 04:00:18;;;;;;;47.30;25.23;;;;;;;3.65;100.00;103523.44;5057316;28;20032;-83
2022/01/23 04:02:44;;;;;;;49.95;26.20;;;;;;;3.64;100.00;103525.16;5042318;28;20319;-83
2022/01/23 04:05:10;;;;;;;47.42;26.75;;;;;;;3.64;100.00;103524.28;5040454;28;20354;-83
2022/01/23 04:07:36;;;;;;;49.72;26.50;;;;;;;3.61;100.00;103511.22;5057143;28;20029;-83
2022/01/23 04:10:03;;;;;;;49.45;26.77;;;;;;;3.63;100.00;103522.47;5057608;28;20461;-83
2022/01/23 04:12:42;;;;;;;47.22;25.40;;;;;;;3.64;100.00;103532.00;5044589;28;20034;-83
2022/01/23 04:15:22;;;;;;;48.22;27.05;;;;;;;3.60;100.00;103525.81;5036906;28;20374;-83
2022/01/23 05:01:20;;;;;;;51.72;26.08;;;;;;;3.59;100.00;103546.38;5052080;28;20056;-83
2022/01/23 05:06:11;;;;;;;49.95;27.05;;;;;;;3.56;100.00;103541.06;5053506;28;20409;-83
2022/01/23 05:08:38;;;;;;;53.30;26.15;;;;;;;3.57;100.00;103537.69;5053943;28;20032;-83
2022/01/23 05:11:06;;;;;;;52.13;27.35;;;;;;;3.57;100.00;103541.16;5050545;28;20116;-83
2022/01/23 05:13:32;;;;;;;56.17;29.45;;;;;;;3.59;100.00;103541.22;5054083;28;20025;-82
2022/01/23 05:15:58;;;;;;;51.78;27.58;;;;;;;3.57;100.00;103537.69;5044895;28;20385;-82
2022/01/23 05:18:24;;;;;;;54.15;28.63;;;;;;;3.59;100.00;103533.47;5033580;28;20025;-83
2022/01/23 05:20:58;;;;;;;55.55;28.73;;;;;;;3.59;100.00;103536.06;5051459;28;20029;-83
2022/01/23 05:23:23;;;;;;;48.00;27.58;;;;;;;3.59;100.00;103530.91;5053949;28;20075;-83
2022/01/23 05:25:48;;;;;;;56.00;28.90;;;;;;;3.58;100.00;103531.72;5053094;28;20025;-83
2022/01/23 05:28:14;;;;;;;54.13;29.00;;;;;;;3.60;100.00;103537.84;5053603;28;20033;-83
2022/01/23 05:30:40;;;;;;;53.85;28.77;;;;;;;3.59;100.00;103543.78;5053353;28;20063;-83
2022/01/23 05:33:05;;;;;;;54.08;28.70;;;;;;;3.60;100.00;103545.59;5052320;28;20037;-83
2022/01/23 05:35:31;;;;;;;61.80;29.20;;;;;;;3.58;100.00;103537.75;5049194;28;20087;-83
2022/01/23 05:37:57;;;;;;;54.53;29.25;;;;;;;3.59;100.00;103549.81;5052395;28;20112;-83
2022/01/23 05:40:25;;;;;;;54.30;28.35;;;;;;;3.54;100.00;103533.25;5053856;28;20025;-83
2022/01/23 05:42:50;;;;;;;56.08;29.42;;;;;;;3.61;100.00;103547.34;5053373;28;20052;-83
2022/01/23 05:45:16;;;;;;;55.15;29.35;;;;;;;3.57;100.00;103542.84;5052766;28;20017;-83
2022/01/23 05:47:41;;;;;;;50.20;26.95;;;;;;;3.60;100.00;103546.47;5053343;28;20465;-83
2022/01/23 05:50:07;;;;;;;46.00;25.80;;;;;;;3.59;100.00;103536.94;5052907;28;20041;-83
2022/01/23 05:52:34;;;;;;;52.50;28.10;;;;;;;3.59;100.00;103543.78;5038849;28;20474;-83
2022/01/23 05:55:00;;;;;;;53.28;28.60;;;;;;;3.55;100.00;103540.19;5033249;28;20116;-83
2022/01/23 05:57:25;;;;;;;53.03;27.33;;;;;;;3.56;100.00;103535.91;5033436;28;20013;-83
2022/01/23 05:59:50;;;;;;;54.33;28.58;;;;;;;3.55;100.00;103531.56;5033681;28;20508;-83
2022/01/23 06:02:16;;;;;;;49.15;27.92;;;;;;;3.55;100.00;103529.84;5045725;28;20032;-83
2022/01/23 06:04:41;;;;;;;51.72;27.33;;;;;;;3.55;100.00;103532.44;5052307;28;20487;-83
2022/01/23 06:07:06;;;;;;;54.13;27.92;;;;;;;3.56;100.00;103533.31;5052299;28;20036;-83
2022/01/23 06:09:32;;;;;;;49.80;26.27;;;;;;;3.55;100.00;103534.13;5053081;28;20033;-83
2022/01/23 06:11:57;;;;;;;55.22;28.90;;;;;;;3.54;100.00;103529.81;5047184;28;20025;-83
2022/01/23 06:14:22;;;;;;;52.55;28.10;;;;;;;3.51;100.00;103533.09;5032422;28;20036;-83
2022/01/23 06:16:48;;;;;;;48.28;27.15;;;;;;;3.53;100.00;103539.22;5050755;28;20473;-83
2022/01/23 06:19:14;;;;;;;51.22;27.85;;;;;;;3.49;100.00;103535.59;5052420;28;20543;-83
2022/01/23 06:21:39;;;;;;;49.80;26.88;;;;;;;3.51;100.00;103536.56;5051555;28;20033;-83
2022/01/23 06:24:08;;;;;;;54.90;27.58;;;;;;;3.51;100.00;103549.47;5052401;28;20466;-82
2022/01/23 06:26:45;;;;;;;53.15;28.10;;;;;;;3.48;100.00;103544.16;5052675;28;20051;-82
2022/01/23 06:29:11;;;;;;;55.20;28.50;;;;;;;3.50;100.00;103544.25;5051592;28;20044;-82
2022/01/23 06:31:38;;;;;;;52.58;27.10;;;;;;;3.52;100.00;103551.22;5049991;28;20029;-83
2022/01/23 06:34:06;;;;;;;56.22;28.23;;;;;;;3.50;100.00;103537.38;5051285;28;20037;-83
2022/01/23 06:36:32;;;;;;;51.10;28.20;;;;;;;3.49;100.00;103533.03;5052541;28;20362;-83
2022/01/23 06:38:58;;;;;;;48.53;27.15;;;;;;;3.47;100.00;103529.50;5052321;28;20112;-83
2022/01/23 06:41:23;;;;;;;54.15;27.83;;;;;;;3.50;100.00;103536.50;5049916;28;20226;-83
2022/01/23 06:43:49;;;;;;;57.13;30.05;;;;;;;3.48;100.00;103545.84;5052022;28;20032;-83
2022/01/23 06:46:14;;;;;;;55.63;29.45;;;;;;;3.48;100.00;103554.47;5052086;28;20033;-84
2022/01/23 06:48:39;;;;;;;57.15;29.95;;;;;;;3.48;100.00;103557.06;5051351;28;20025;-83
2022/01/23 06:51:04;;;;;;;59.53;29.40;;;;;;;3.48;100.00;103554.47;5051284;28;20024;-83
2022/01/23 06:53:30;;;;;;;53.13;29.30;;;;;;;3.46;100.00;103558.66;5050549;28;20021;-82
2022/01/23 06:55:55;;;;;;;56.40;28.65;;;;;;;3.47;100.00;103563.03;5050864;28;20031;-83
2022/01/23 06:58:20;;;;;;;55.08;30.08;;;;;;;3.44;100.00;103552.56;5052168;28;20115;-83
2022/01/23 07:00:45;;;;;;;60.03;28.85;;;;;;;3.42;100.00;103548.13;5046941;28;20029;-83
2022/01/23 07:03:12;;;;;;;53.92;29.50;;;;;;;3.46;100.00;103565.50;5031025;28;20031;-83
2022/01/23 07:05:37;;;;;;;60.78;30.23;;;;;;;3.43;100.00;103567.94;5032146;28;20041;-83
2022/01/23 07:08:03;;;;;;;56.90;28.83;;;;;;;3.44;100.00;103578.34;5036634;28;20029;-83
2022/01/23 07:10:28;;;;;;;57.28;31.67;;;;;;;3.42;100.00;103564.47;5050342;28;20152;-83
2022/01/23 07:12:54;;;;;;;56.35;30.60;;;;;;;3.42;100.00;103569.66;5041831;28;20099;-83
2022/01/23 07:15:19;;;;;;;53.53;28.58;;;;;;;3.41;100.00;103575.63;5045069;28;20558;-83
2022/01/23 07:17:45;;;;;;;53.13;28.70;;;;;;;3.43;100.00;103584.31;5050284;28;20043;-83
2022/01/23 07:20:10;;;;;;;56.05;29.13;;;;;;;3.43;100.00;103586.91;5048714;28;20021;-83
2022/01/23 07:22:36;;;;;;;54.25;29.20;;;;;;;3.43;100.00;103586.91;5031765;28;20108;-83
2022/01/23 07:25:03;;;;;;;56.08;30.17;;;;;;;3.41;100.00;103592.78;5039158;28;20033;-83
2022/01/23 07:27:37;;;;;;;60.83;30.40;;;;;;;3.44;100.00;103600.69;5051564;28;20031;-83
2022/01/23 07:30:05;;;;;;;59.00;31.08;;;;;;;3.43;100.00;103596.31;5049889;28;20052;-83
2022/01/23 07:32:31;;;;;;;59.63;31.23;;;;;;;3.44;100.00;103603.25;5049476;28;20032;-83
2022/01/23 07:34:57;;;;;;;63.47;30.98;;;;;;;3.43;100.00;103598.88;5051367;28;20392;-83
2022/01/23 07:37:22;;;;;;;61.03;30.23;;;;;;;3.38;100.00;103593.50;5051283;28;20120;-82
2022/01/23 07:39:47;;;;;;;61.97;30.98;;;;;;;3.44;100.00;103598.97;5051123;28;20112;-82
2022/01/23 07:42:13;;;;;;;63.75;32.95;;;;;;;3.44;100.00;103604.16;5048298;28;20059;-83
2022/01/23 07:44:38;;;;;;;57.20;30.92;;;;;;;3.46;100.00;103605.09;5050390;28;20025;-83
2022/01/23 07:47:04;;;;;;;61.22;31.33;;;;;;;3.48;100.00;103608.63;5051060;28;20056;-82
2022/01/23 07:49:29;;;;;;;58.40;30.77;;;;;;;3.51;100.00;103610.50;5051553;28;20025;-83
2022/01/23 07:51:59;;;;;;;67.30;34.30;;;;;;;3.54;100.00;103607.19;5048080;28;20061;-82
2022/01/23 07:54:24;;;;;;;58.10;31.45;;;;;;;3.54;100.00;103613.22;5051079;28;20036;-83
2022/01/23 07:56:50;;;;;;;63.78;31.95;;;;;;;3.55;100.00;103612.41;5051540;28;20037;-82
2022/01/23 07:59:15;;;;;;;64.38;32.53;;;;;;;3.57;100.00;103621.13;5050114;28;20029;-82
2022/01/23 08:01:40;;;;;;;63.05;33.00;;;;;;;3.58;100.00;103620.28;5037156;28;20492;-82
2022/01/23 08:04:06;;;;;;;61.67;31.58;;;;;;;3.60;100.00;103620.41;5035069;28;20465;-83
2022/01/23 08:06:38;;;;;;;65.03;32.17;;;;;;;3.59;100.00;103610.84;5048661;28;20105;-83
2022/01/23 08:09:04;;;;;;;60.67;32.65;;;;;;;3.63;100.00;103611.09;5037842;28;20053;-83
2022/01/23 08:11:29;;;;;;;62.92;32.83;;;;;;;3.64;100.00;103612.00;5032253;28;20068;-83
2022/01/23 08:13:54;;;;;;;64.38;31.50;;;;;;;3.64;100.00;103618.03;5030250;28;20025;-82
2022/01/23 08:16:19;;;;;;;61.85;33.35;;;;;;;3.66;100.00;103620.66;5036452;28;20025;-82
2022/01/23 08:18:45;;;;;;;62.22;32.55;;;;;;;3.66;100.00;103613.84;5051164;28;20496;-83
2022/01/23 08:21:10;;;;;;;63.80;32.45;;;;;;;3.66;100.00;103621.59;5050062;28;20376;-83
2022/01/23 08:23:38;;;;;;;61.10;33.28;;;;;;;3.66;100.00;103615.50;5051043;28;20040;-83
2022/01/23 08:26:06;;;;;;;62.40;32.40;;;;;;;3.67;100.00;103622.47;5045804;28;20495;-83
2022/01/23 08:28:31;;;;;;;68.22;32.13;;;;;;;3.67;100.00;103617.31;5030580;28;20056;-82
2022/01/23 08:30:59;;;;;;;59.42;31.30;;;;;;;3.73;100.00;103633.97;5048578;28;20025;-82
2022/01/23 08:33:25;;;;;;;62.60;33.03;;;;;;;3.76;100.00;103625.50;5054384;28;20511;-83
2022/01/23 08:35:53;;;;;;;60.17;31.38;;;;;;;3.71;100.00;103616.63;5041328;28;20021;-83
2022/01/23 08:38:18;;;;;;;60.03;32.03;;;;;;;3.79;100.00;103628.19;5051222;28;20392;-83
2022/01/23 08:43:15;;;;;;;60.83;31.80;;;;;;;3.86;100.00;103647.44;5054138;28;20449;-83
2022/01/23 08:45:41;;;;;;;62.22;32.08;;;;;;;3.88;100.00;103649.31;5053639;28;20036;-83
2022/01/23 08:48:06;;;;;;;60.15;31.10;;;;;;;3.91;100.00;103648.56;5034212;28;20607;-83
2022/01/23 08:50:32;;;;;;;64.15;33.17;;;;;;;3.91;100.00;103646.00;5038088;28;20025;-83
2022/01/23 08:52:57;;;;;;;62.08;32.97;;;;;;;3.95;100.00;103653.06;5052245;28;20047;-83
2022/01/23 08:55:23;;;;;;;62.47;31.42;;;;;;;3.97;100.00;103649.75;5034983;28;20022;-83
2022/01/23 08:57:48;;;;;;;60.08;32.45;;;;;;;3.97;100.00;103649.75;5039152;28;20103;-83
2022/01/23 09:00:14;;;;;;;62.90;33.47;;;;;;;4.02;100.00;103651.66;5054279;28;20032;-83
2022/01/23 09:02:41;;;;;;;61.25;32.63;;;;;;;4.05;100.00;103656.97;5053041;28;20021;-83
2022/01/23 09:05:06;;;;;;;63.35;33.03;;;;;;;4.08;100.00;103652.84;5048855;28;20072;-83
2022/01/23 09:07:32;;;;;;;60.47;33.70;;;;;;;4.08;100.00;103655.44;5043107;28;20480;-83
2022/01/23 09:10:02;;;;;;;58.55;32.60;;;;;;;4.07;100.00;103640.75;5052528;28;20035;-85
2022/01/23 09:13:04;;;;;;;62.83;32.92;;;;;;;4.13;100.00;103647.94;5052623;28;20025;-85
2022/01/23 09:15:13;;;;;;;65.00;35.25;;;;;;;4.17;100.00;103647.25;5046802;28;20389;-82
2022/01/23 09:17:38;;;;;;;64.55;32.78;;;;;;;4.20;100.00;103645.69;5033232;28;20029;-82
2022/01/23 09:20:04;;;;;;;58.15;32.10;;;;;;;4.26;100.00;103649.41;5040652;28;20025;-84
2022/01/23 09:22:31;;;;;;;61.78;32.20;;;;;;;4.23;100.00;103638.09;5050079;28;20397;-84
2022/01/23 09:25:00;;;;;;;63.40;33.17;;;;;;;4.31;100.00;103645.31;5047451;28;20031;-85
2022/01/23 09:27:26;;;;;;;57.35;31.95;;;;;;;4.33;100.00;103644.56;5051840;28;20057;-84
2022/01/23 09:29:53;;;;;;;62.30;33.35;;;;;;;4.37;100.00;103641.31;5058377;28;20068;-84
2022/01/23 09:32:22;;;;;;;61.28;33.55;;;;;;;4.41;100.00;103639.75;5053542;28;20044;-84
2022/01/23 09:34:48;;;;;;;60.83;33.50;;;;;;;4.43;100.00;103644.19;5052462;28;20514;-84
2022/01/23 09:37:15;;;;;;;54.47;30.85;;;;;;;4.45;100.00;103640.00;5048628;28;20136;-84
2022/01/23 09:39:45;;;;;;;60.72;32.42;;;;;;;4.53;100.00;103653.25;5049573;28;20029;-85
2022/01/23 09:42:17;;;;;;;61.47;32.42;;;;;;;4.59;100.00;103653.53;5052329;28;20109;-84
2022/01/23 09:44:57;;;;;;;57.70;31.88;;;;;;;4.62;100.00;103645.06;5052026;28;20039;-85
2022/01/23 09:47:22;;;;;;;54.28;30.65;;;;;;;4.64;100.00;103657.25;5032607;28;20049;-85
2022/01/23 09:49:50;;;;;;;58.40;32.33;;;;;;;4.72;100.00;103655.00;5044252;28;20033;-85
2022/01/23 09:52:17;;;;;;;56.25;30.88;;;;;;;4.71;100.00;103650.66;5049549;28;20476;-85
2022/01/23 09:54:45;;;;;;;53.63;30.05;;;;;;;4.75;100.00;103654.25;5052561;28;20041;-85
2022/01/23 09:57:12;;;;;;;51.72;29.55;;;;;;;4.75;100.00;103660.31;5051357;28;20579;-84
2022/01/23 09:59:39;;;;;;;54.33;30.40;;;;;;;4.81;100.00;103664.88;5051328;28;20052;-84
2022/01/23 10:02:05;;;;;;;53.92;28.85;;;;;;;4.84;100.00;103663.31;5040677;28;20033;-85
2022/01/23 10:04:31;;;;;;;53.78;29.80;;;;;;;4.88;100.00;103657.47;5052454;28;20028;-85
2022/01/23 10:06:57;;;;;;;52.30;29.30;;;;;;;4.92;100.00;103656.78;5051534;28;20041;-85
2022/01/23 10:09:26;;;;;;;54.45;30.38;;;;;;;4.98;100.00;103668.22;5053417;28;20151;-85
2022/01/23 10:11:52;;;;;;;54.47;29.52;;;;;;;5.02;100.00;103667.53;5049684;28;20166;-85
2022/01/23 10:14:18;;;;;;;54.72;29.13;;;;;;;5.04;100.00;103658.16;5048655;28;20119;-85
2022/01/23 10:16:45;;;;;;;55.10;29.55;;;;;;;5.07;100.00;103663.47;5043854;28;20496;-85
2022/01/23 10:19:11;;;;;;;49.03;27.45;;;;;;;5.12;100.00;103664.53;5047190;28;20840;-85
2022/01/23 10:21:40;;;;;;;50.97;28.20;;;;;;;5.11;100.00;103658.47;5051377;28;20599;-86
2022/01/23 10:24:06;;;;;;;53.00;28.90;;;;;;;5.20;100.00;103663.19;5046472;28;20384;-85
2022/01/23 10:26:53;;;;;;;52.25;28.02;;;;;;;5.27;100.00;103657.44;5052901;28;20036;-86
2022/01/23 10:29:22;;;;;;;51.92;28.63;;;;;;;5.30;100.00;103656.72;5049586;28;20044;-86
2022/01/23 10:32:07;;;;;;;49.03;28.50;;;;;;;5.38;100.00;103658.78;5051702;28;20052;-87
2022/01/23 10:34:43;;;;;;;47.92;28.13;;;;;;;5.40;100.00;103654.56;5050598;28;20384;-86
2022/01/23 10:37:09;;;;;;;49.63;28.08;;;;;;;5.41;100.00;103655.44;5051342;28;20087;-86
2022/01/23 10:39:46;;;;;;;47.22;27.65;;;;;;;5.49;100.00;103656.66;5052019;28;20025;-86
2022/01/23 10:47:55;;;;;;;47.30;26.92;;;;;;;5.62;99.98;103648.59;5048143;28;20114;-85
2022/01/23 10:50:24;;;;;;;51.17;28.00;;;;;;;5.66;100.00;103654.78;5037278;28;20048;-84
2022/01/23 10:52:51;;;;;;;45.08;27.25;;;;;;;5.69;100.00;103648.84;5050867;28;20117;-85
2022/01/23 10:55:24;;;;;;;46.47;27.00;;;;;;;5.72;100.00;103651.56;5051178;28;20610;-85
2022/01/23 10:57:54;;;;;;;46.33;27.25;;;;;;;5.74;99.57;103649.94;5051627;28;20438;-85
2022/01/23 11:00:30;;;;;;;48.65;26.60;;;;;;;5.77;99.39;103650.06;5051660;28;20040;-85
2022/01/23 11:02:57;;;;;;;47.17;26.73;;;;;;;5.83;99.90;103645.13;5049944;28;20032;-85
2022/01/23 11:05:34;;;;;;;48.63;28.30;;;;;;;5.87;100.00;103650.47;5052856;28;20039;-85
2022/01/23 11:08:01;;;;;;;51.78;29.52;;;;;;;5.91;100.00;103655.78;5054386;28;20174;-86
2022/01/23 11:10:27;;;;;;;51.35;29.63;;;;;;;5.92;99.54;103644.59;5050152;28;20017;-84
2022/01/23 11:18:15;;;;;;;54.95;31.40;;;;;;;5.98;99.94;103634.53;5039043;28;20471;-86
2022/01/23 11:20:46;;;;;;;58.95;34.50;;;;;;;5.97;100.00;103632.78;5042800;28;20127;-85
2022/01/23 11:23:23;;;;;;;53.95;31.95;;;;;;;5.99;99.04;103641.50;5049177;28;20396;-86
2022/01/23 11:25:51;;;;;;;55.88;31.73;;;;;;;6.01;99.25;103643.31;5031661;28;20033;-85
2022/01/23 11:28:17;;;;;;;55.58;32.30;;;;;;;6.01;98.74;103638.13;5031846;28;20053;-86
2022/01/23 11:30:45;;;;;;;52.40;31.45;;;;;;;6.01;98.29;103634.66;5030774;28;20497;-86
2022/01/23 11:33:15;;;;;;;54.88;31.02;;;;;;;6.02;97.90;103626.97;5031537;28;20287;-86
2022/01/23 11:35:41;;;;;;;53.50;31.52;;;;;;;6.03;98.12;103627.84;5031581;28;20025;-86
2022/01/23 11:38:13;;;;;;;54.58;31.60;;;;;;;6.05;98.23;103626.22;5030558;28;20075;-86
2022/01/23 11:50:37;;;;;;;52.00;30.70;;;;;;;6.02;97.51;103620.91;5031736;28;20017;-86
2022/01/23 11:54:48;;;;;;;49.00;28.40;;;;;;;6.18;96.75;103617.19;5031717;28;20103;-86
2022/01/23 11:57:43;;;;;;;46.85;27.55;;;;;;;6.21;97.08;103618.22;5031506;28;20091;-85
2022/01/23 12:00:18;;;;;;;46.97;29.02;;;;;;;6.18;96.86;103612.00;5031324;28;20063;-85
2022/01/23 12:03:03;;;;;;;53.28;27.90;;;;;;;6.22;97.16;103599.25;5032164;28;20025;-86
2022/01/23 12:05:29;;;;;;;46.40;26.63;;;;;;;6.21;95.03;103604.34;5034494;28;20108;-86
2022/01/23 12:08:18;;;;;;;44.70;26.00;;;;;;;6.26;96.51;103601.13;5035376;28;20057;-85
2022/01/23 12:16:21;;;;;;;42.22;25.05;;;;;;;6.34;96.50;103598.81;5023222;28;20080;-86
2022/01/23 12:16:59;;;;;;;44.00;25.70;;;;;;;6.35;94.65;103595.41;5035424;28;20033;-86
2022/01/23 12:19:27;;;;;;;42.00;25.05;;;;;;;6.35;95.11;103591.94;5034445;28;20025;-86
2022/01/23 12:21:54;;;;;;;37.90;23.67;;;;;;;6.37;93.54;103592.88;5035014;28;20041;-85
2022/01/23 12:24:22;;;;;;;42.25;24.55;;;;;;;6.40;93.54;103585.22;5035489;28;20025;-85
2022/01/23 12:26:49;;;;;;;42.45;24.60;;;;;;;6.41;92.96;103590.47;5034127;28;20022;-85
2022/01/23 12:29:26;;;;;;;42.15;25.67;;;;;;;6.41;93.41;103579.19;5034786;28;20060;-86
2022/01/23 12:32:27;;;;;;;46.15;26.45;;;;;;;6.42;94.61;103588.75;5034887;28;20532;-85
2022/01/23 12:34:56;;;;;;;48.33;29.05;;;;;;;6.40;93.68;103580.91;5034450;28;20079;-86
2022/01/23 12:37:22;;;;;;;51.67;31.23;;;;;;;6.41;93.67;103579.19;5035098;28;20075;-86
2022/01/23 12:40:27;;;;;;;52.55;30.70;;;;;;;6.45;94.40;103581.97;5034339;28;20033;-86
2022/01/23 12:43:12;;;;;;;52.70;29.85;;;;;;;6.43;94.33;103574.97;5034581;28;20057;-86
2022/01/23 12:45:58;;;;;;;52.03;29.98;;;;;;;6.38;93.66;103574.81;5034743;28;20044;-86
2022/01/23 12:48:26;;;;;;;46.95;29.42;;;;;;;6.41;92.96;103580.09;5034266;28;20029;-86
2022/01/23 12:50:54;;;;;;;50.38;30.33;;;;;;;6.42;93.25;103575.81;5034677;28;20576;-86
2022/01/23 12:53:20;;;;;;;48.25;27.48;;;;;;;6.43;91.98;103574.97;5034599;28;20038;-86
2022/01/23 12:56:06;;;;;;;50.53;27.30;;;;;;;6.40;92.60;103567.06;5033659;28;20033;-85
2022/01/23 12:58:33;;;;;;;46.60;27.85;;;;;;;6.36;92.67;103570.38;5034319;28;20041;-86
2022/01/23 13:00:59;;;;;;;45.20;26.83;;;;;;;6.33;91.79;103560.78;5033439;28;20028;-85
2022/01/23 13:03:28;;;;;;;55.15;27.75;;;;;;;6.30;91.96;103558.06;5034195;28;20396;-85
2022/01/23 13:05:54;;;;;;;46.53;26.23;;;;;;;6.37;90.95;103560.06;5034605;28;20032;-85
2022/01/23 13:08:24;;;;;;;40.78;24.95;;;;;;;6.41;91.66;103553.28;5033541;28;20022;-86
2022/01/23 13:11:07;;;;;;;43.25;25.83;;;;;;;6.38;91.39;103548.03;5034662;28;20017;-85
2022/01/23 13:13:39;;;;;;;52.22;28.60;;;;;;;6.40;91.98;103552.41;5034153;28;20026;-85
2022/01/23 13:18:43;;;;;;;48.35;30.10;;;;;;;6.39;92.04;103547.19;5034141;28;20041;-86
2022/01/23 13:27:17;;;;;;;52.25;28.83;;;;;;;6.40;91.49;103548.94;5033813;28;20055;-85
2022/01/23 13:30:00;;;;;;;51.05;29.85;;;;;;;6.39;91.96;103555.84;5032827;28;20379;-85
2022/01/23 13:35:03;;;;;;;58.35;30.13;;;;;;;6.44;92.29;103548.22;5033521;28;20038;-86
2022/01/23 13:37:32;;;;;;;50.53;29.83;;;;;;;6.43;92.38;103551.66;5033169;28;20108;-85
2022/01/23 13:40:09;;;;;;;51.60;29.15;;;;;;;6.40;92.19;103546.34;5033480;28;20057;-85
2022/01/23 13:47:56;;;;;;;51.45;29.80;;;;;;;6.39;92.54;103549.78;5033697;28;20026;-86
2022/01/23 13:51:58;;;;;;;51.67;27.98;;;;;;;6.37;92.46;103554.88;5033091;28;20048;-86
2022/01/23 14:02:28;;;;;;;48.58;26.27;;;;;;;6.40;92.09;103531.69;5033478;28;20492;-85
2022/01/23 14:05:11;;;;;;;42.25;26.63;;;;;;;6.45;92.12;103529.28;5032329;28;20354;-85
2022/01/23 14:07:38;;;;;;;43.13;25.95;;;;;;;6.29;89.99;103507.97;5033234;28;20025;-86
2022/01/23 14:10:12;;;;;;;44.47;27.17;;;;;;;6.36;91.41;103521.16;5032801;28;20037;-86
2022/01/23 14:12:38;;;;;;;46.42;26.85;;;;;;;6.32;91.18;103523.63;5032360;28;20033;-86
2022/01/23 14:15:08;;;;;;;43.13;26.90;;;;;;;6.34;90.91;103526.25;5032872;28;20025;-85
2022/01/23 14:17:39;;;;;;;43.70;26.10;;;;;;;6.34;91.16;103521.09;5033003;28;20029;-85
2022/01/23 14:20:16;;;;;;;49.60;27.45;;;;;;;6.31;91.49;103528.75;5032065;28;20040;-85
2022/01/23 14:22:44;;;;;;;42.35;26.50;;;;;;;6.31;91.96;103527.06;5032888;28;20029;-86
2022/01/23 14:25:16;;;;;;;45.72;26.88;;;;;;;6.31;92.35;103531.34;5032847;28;20036;-85
2022/01/23 14:27:45;;;;;;;44.30;26.95;;;;;;;6.28;92.34;103533.84;5032274;28;20458;-85
2022/01/23 14:30:15;;;;;;;43.78;27.00;;;;;;;6.26;93.43;103531.19;5032518;28;20468;-86
2022/01/23 14:32:49;;;;;;;43.70;26.63;;;;;;;6.25;92.93;103536.31;5031930;28;20036;-85
2022/01/23 14:35:30;;;;;;;42.55;27.17;;;;;;;6.22;92.65;103536.19;5032245;28;20025;-86
2022/01/23 14:38:27;;;;;;;41.40;25.80;;;;;;;6.21;93.41;103545.69;5032368;28;20041;-85
2022/01/23 14:40:54;;;;;;;45.55;27.17;;;;;;;6.15;92.58;103542.84;5031523;28;20037;-85